Latest Weather Observations for Winton

IDQ60801

Issued at 9:05 pm EST Saturday 26 July 2014 (issued every 30 minutes, with the page automatically refreshed every 10 minutes)

About weather observations | Map of weather stations | Latest weather observations for QLD | Other Formats
Station Details ID: 037039 Name: WINTON AIRPORT Lat: -22.36 Lon: 143.08 Height: 192.2 m
Data from the previous 72 hours. | See also: Recent months at Winton
Date/Time
EST
Temp
°C
App
Temp
°C
Dew
Point
Rel
Hum
%
Delta-T
°C
Wind Press
QNH
hPa
Press
MSL
hPa
Rain
since 9 am
mm
Dir
 
Spd
km/h
Gust
km/h
Spd
kts
Gust
kts
26/09:00pm 20.6 17.3 4.6 35 7.8 S 11 15 6 8 1023.3 1023.0 0.0
26/08:30pm 20.5 17.5 4.1 34 7.9 S 9 11 5 6 1023.1 - 0.0
26/08:00pm 22.6 19.4 5.1 32 8.8 S 11 15 6 8 1022.9 1022.6 0.0
26/07:30pm 23.6 20.1 5.5 31 9.2 S 13 19 7 10 1022.6 - 0.0
26/07:00pm 24.3 21.1 7.0 33 9.1 S 13 17 7 9 1022.1 1021.8 0.0
26/06:30pm 25.5 21.2 7.1 31 9.8 SSW 19 24 10 13 1021.8 - 0.0
26/06:00pm 26.6 23.2 7.6 30 10.2 SSE 15 24 8 13 1021.5 1021.2 0.0
26/05:30pm 27.6 24.3 8.0 29 10.7 SSE 15 22 8 12 1021.1 - 0.0
26/05:00pm 27.6 23.5 8.0 29 10.6 SSE 19 24 10 13 1020.9 1020.7 0.0
26/04:30pm 27.9 26.0 9.2 31 10.4 SE 9 15 5 8 1020.6 - 0.0
26/04:00pm 28.6 26.1 9.8 31 10.6 S 13 20 7 11 1020.5 1020.2 0.0
26/03:30pm 28.3 25.8 8.1 28 11.1 SSE 11 22 6 12 1020.5 - 0.0
26/03:00pm 28.7 26.9 10.8 33 10.2 S 11 22 6 12 1020.6 1020.3 0.0
26/02:30pm 28.3 26.0 10.5 33 10.1 SE 13 20 7 11 1020.7 - 0.0
26/02:00pm 27.6 26.2 10.8 35 9.6 S 9 15 5 8 1021.0 1020.8 0.0
26/01:30pm 27.7 26.9 11.7 37 9.3 SSE 7 15 4 8 1021.5 - 0.0
26/01:00pm 27.2 26.6 11.7 38 8.9 SW 6 9 3 5 1022.0 1021.7 0.0
26/12:30pm 26.8 26.1 12.1 40 8.5 SW 7 13 4 7 1022.6 - 0.0
26/12:00pm 25.5 24.8 11.3 41 8.1 SW 6 9 3 5 1023.1 1022.8 0.0
26/11:30am 25.5 25.2 11.3 41 8.1 WSW 4 7 2 4 1023.6 - 0.0
26/11:00am 24.8 24.0 11.0 42 7.8 ENE 6 7 3 4 1024.0 1023.7 0.0
26/10:30am 24.1 22.9 10.4 42 7.6 E 7 13 4 7 1024.3 - 0.0
26/10:00am 22.9 20.5 7.1 36 8.2 SE 9 13 5 7 1024.2 1023.9 0.0
26/09:30am 21.4 18.2 5.3 35 8.1 SE 11 15 6 8 1024.4 - 0.0
26/09:00am 20.1 15.5 3.8 34 7.8 SE 17 19 9 10 1024.2 1023.9 0.0
26/08:30am 18.5 14.3 3.9 38 7.0 ESE 15 19 8 10 1024.0 - 0.0
26/08:00am 16.3 14.1 6.2 51 4.9 SE 7 11 4 6 1023.8 1023.5 0.0
26/07:30am 15.1 12.4 3.6 46 5.3 SSE 7 7 4 4 1023.5 - 0.0
26/07:00am 14.9 12.1 3.1 45 5.4 SSW 7 9 4 5 1023.2 1022.9 0.0
26/06:30am 15.3 12.4 4.7 49 5.0 SW 9 13 5 7 1022.8 - 0.0
26/06:00am 16.6 14.7 6.7 52 4.9 SW 6 7 3 4 1022.3 1022.0 0.0
26/05:30am 16.9 14.9 6.4 50 5.2 SW 6 7 3 4 1022.0 - 0.0
26/05:00am 17.8 17.1 7.0 49 5.4 WSW 0 4 0 2 1021.8 1021.5 0.0
26/04:30am 18.9 17.5 8.8 52 5.3 SSE 6 7 3 4 1021.7 - 0.0
26/04:00am 19.1 17.8 7.8 48 5.8 SSE 4 6 2 3 1021.7 1021.4 0.0
26/03:30am 19.0 17.2 7.1 46 6.1 S 6 7 3 4 1021.8 - 0.0
26/03:00am 19.4 18.0 7.2 45 6.2 SW 4 6 2 3 1021.6 1021.3 0.0
26/02:30am 19.2 17.1 6.7 44 6.3 SSW 7 9 4 5 1021.6 - 0.0
26/02:00am 19.7 16.4 8.1 47 6.0 WSW 15 26 8 14 1021.7 1021.4 0.0
26/01:30am 18.9 16.4 6.7 45 6.2 NE 9 9 5 5 1021.0 - 0.0
26/01:00am 18.6 15.9 5.5 42 6.4 NE 9 9 5 5 1021.0 1020.8 0.0
26/12:30am 18.9 16.0 4.7 39 6.9 NNE 9 11 5 6 1021.3 - 0.0
26/12:00am 19.4 16.3 3.6 35 7.5 NE 9 11 5 6 1021.3 1021.1 0.0
 
Date/Time
EST
Temp
°C
App
Temp
°C
Dew
Point
Rel
Hum
%
Delta-T
°C
Wind Press
QNH
hPa
Press
MSL
hPa
Rain
since 9 am
mm
Dir
 
Spd
km/h
Gust
km/h
Spd
kts
Gust
kts
25/11:30pm 19.9 16.0 3.2 33 7.9 ENE 13 15 7 8 1021.5 - 0.0
25/11:00pm 21.4 19.1 4.9 34 8.2 ESE 6 7 3 4 1021.0 1020.8 0.0
25/10:30pm 21.6 19.4 5.1 34 8.2 E 6 6 3 3 1021.1 - 0.0
25/10:00pm 21.8 20.0 5.3 34 8.2 E 4 6 2 3 1021.0 1020.8 0.0
25/09:30pm 21.7 19.3 4.3 32 8.6 E 6 7 3 4 1021.0 - 0.0
25/09:00pm 21.6 18.9 3.8 31 8.6 E 7 7 4 4 1020.8 1020.6 0.0
25/08:30pm 22.1 19.0 3.7 30 9.0 E 9 11 5 6 1020.6 - 0.0
25/08:00pm 23.1 20.5 3.1 27 9.7 ESE 6 6 3 3 1020.3 1020.0 0.0
25/07:30pm 25.8 24.1 5.9 28 10.3 ESE 4 4 2 2 1019.9 - 0.0
25/07:00pm 25.5 24.0 5.1 27 10.4 E 2 4 1 2 1019.5 1019.2 0.0
25/06:30pm 26.2 25.0 4.6 25 11.0 CALM 0 0 0 0 1019.1 - 0.0
25/06:00pm 27.9 27.0 6.1 25 11.5 CALM 0 0 0 0 1018.8 1018.5 0.0
25/05:30pm 28.6 26.3 5.5 23 12.1 WSW 7 9 4 5 1018.5 - 0.0
25/05:00pm 28.5 26.1 5.4 23 12.1 WNW 7 20 4 11 1018.3 1018.0 0.0
25/04:30pm 28.9 26.8 5.7 23 12.2 NNW 6 13 3 7 1018.2 - 0.0
25/04:00pm 29.9 27.6 5.9 22 12.8 WNW 7 15 4 8 1018.0 1017.7 0.0
25/03:30pm 29.0 26.7 5.8 23 12.3 NNW 7 17 4 9 1017.9 - 0.0
25/03:00pm 29.2 26.6 6.0 23 12.3 NW 9 19 5 10 1018.0 1017.7 0.0
25/02:30pm 29.4 25.9 7.3 25 12.0 NNW 15 20 8 11 1018.1 - 0.0
25/02:00pm 29.0 26.6 7.0 25 11.9 NNW 9 17 5 9 1018.4 1018.1 0.0
25/01:30pm 28.3 26.4 7.5 27 11.3 WNW 7 15 4 8 1018.8 - 0.0
25/01:00pm 27.7 26.0 7.5 28 10.9 NNW 6 13 3 7 1019.3 1019.0 0.0
25/12:30pm 27.6 25.4 8.0 29 10.7 NW 9 15 5 8 1019.8 - 0.0
25/12:00pm 27.1 24.3 8.5 31 10.2 NW 13 22 7 12 1020.3 1020.0 0.0
25/11:30am 26.7 23.9 8.6 32 9.9 WNW 13 17 7 9 1020.7 - 0.0
25/11:00am 25.9 22.1 9.7 36 9.0 NNW 20 30 11 16 1021.0 1020.8 0.0
25/10:30am 25.0 21.0 10.5 40 8.1 N 22 30 12 16 1021.3 - 0.0
25/10:00am 24.3 21.0 10.9 43 7.5 N 19 28 10 15 1021.5 1021.2 0.0
25/09:30am 22.0 19.2 11.4 51 6.0 NNE 17 22 9 12 1021.6 - 0.0
25/09:00am 17.6 15.6 8.5 55 4.7 NE 9 13 5 7 1021.2 1021.0 0.0
25/08:30am 14.2 11.5 5.8 57 4.0 NE 9 11 5 6 1021.0 - 0.0
25/08:00am 13.6 11.2 4.2 53 4.3 ESE 6 7 3 4 1020.6 1020.3 0.0
25/07:30am 11.5 9.2 2.5 54 3.9 ENE 4 6 2 3 1020.2 - 0.0
25/07:00am 11.4 8.7 2.4 54 3.9 E 6 7 3 4 1019.9 1019.6 0.0
25/06:30am 12.8 10.8 4.3 56 3.9 NE 4 7 2 4 1019.3 - 0.0
25/06:00am 13.8 10.7 5.4 57 4.0 NE 11 15 6 8 1018.7 1018.4 0.0
25/05:30am 13.9 10.3 4.8 54 4.3 NE 13 17 7 9 1018.1 - 0.0
25/05:00am 12.9 9.3 3.0 51 4.4 NE 11 13 6 7 1017.7 1017.4 0.0
25/04:30am 12.7 8.9 1.7 47 4.8 NE 11 13 6 7 1017.6 - 0.0
25/04:00am 13.2 9.4 1.5 45 5.1 NE 11 13 6 7 1017.5 1017.2 0.0
25/03:30am 13.3 9.5 1.6 45 5.1 NE 11 13 6 7 1017.6 - 0.0
25/03:00am 13.8 10.4 1.8 44 5.3 NE 9 11 5 6 1017.6 1017.3 0.0
25/02:30am 14.8 11.0 1.7 41 5.8 NE 11 13 6 7 1017.4 - 0.0
25/02:00am 15.4 11.7 2.2 41 5.9 NE 11 13 6 7 1017.5 1017.2 0.0
25/01:30am 16.1 11.6 2.2 39 6.3 NE 15 17 8 9 1017.5 - 0.0
25/01:00am 16.6 12.4 1.9 37 6.6 NE 13 15 7 8 1017.5 1017.2 0.0
25/12:30am 16.8 12.2 1.7 36 6.8 NNE 15 17 8 9 1017.7 - 0.0
25/12:00am 17.2 12.5 1.2 34 7.1 NE 15 17 8 9 1017.7 1017.4 0.0
 
Date/Time
EST
Temp
°C
App
Temp
°C
Dew
Point
Rel
Hum
%
Delta-T
°C
Wind Press
QNH
hPa
Press
MSL
hPa
Rain
since 9 am
mm
Dir
 
Spd
km/h
Gust
km/h
Spd
kts
Gust
kts
24/11:30pm 16.7 11.9 0.4 33 7.1 NE 15 17 8 9 1017.8 - 0.0
24/11:00pm 16.6 12.5 -0.1 32 7.2 NE 11 13 6 7 1017.9 1017.6 0.0
24/10:30pm 16.0 10.6 -1.1 31 7.2 E 17 20 9 11 1017.7 - 0.0
24/10:00pm 17.6 14.5 0.3 31 7.6 NNW 6 7 3 4 1017.3 1017.0 0.0
24/09:30pm 17.6 14.3 -0.2 30 7.7 N 7 9 4 5 1017.2 - 0.0
24/09:00pm 18.0 14.6 -0.3 29 8.0 N 7 9 4 5 1017.1 1016.8 0.0
24/08:30pm 19.1 15.5 0.7 29 8.3 NNW 9 11 5 6 1016.9 - 0.0
24/08:00pm 19.4 15.3 -0.1 27 8.6 NNW 11 11 6 6 1016.7 1016.4 0.0
24/07:30pm 20.1 16.4 0.0 26 9.0 NNW 9 9 5 5 1016.4 - 0.0
24/07:00pm 21.1 17.1 0.3 25 9.4 NW 11 11 6 6 1016.1 1015.7 0.0
24/06:30pm 23.5 20.0 1.2 23 10.5 NW 9 9 5 5 1015.6 - 0.0
24/06:00pm 25.7 22.3 1.8 21 11.5 NW 9 11 5 6 1015.2 1014.9 0.0
24/05:30pm 27.9 25.1 2.9 20 12.5 NW 7 11 4 6 1014.9 - 0.0
24/05:00pm 28.5 25.6 2.7 19 12.9 WNW 7 17 4 9 1014.7 1014.4 0.0
24/04:30pm 28.7 24.4 3.5 20 12.8 N 15 20 8 11 1014.6 - 0.0
24/04:00pm 29.3 25.8 3.3 19 13.2 NW 11 22 6 12 1014.5 1014.2 0.0
24/03:30pm 29.1 26.1 3.9 20 12.9 NNW 9 20 5 11 1014.5 - 0.0
24/03:00pm 28.5 25.7 3.4 20 12.7 NNW 7 15 4 8 1014.5 1014.2 0.0
24/02:30pm 28.7 24.8 3.5 20 12.8 N 13 26 7 14 1014.6 - 0.0
24/02:00pm 28.5 24.6 3.4 20 12.7 NNW 13 24 7 13 1014.9 1014.6 0.0
24/01:30pm 28.1 23.8 3.0 20 12.6 N 15 20 8 11 1015.3 - 0.0
24/01:00pm 27.8 23.9 3.5 21 12.2 NNW 13 20 7 11 1015.8 1015.5 0.0
24/12:30pm 27.5 24.1 5.7 25 11.4 N 13 20 7 11 1016.5 - 0.0
24/12:00pm 26.6 22.5 6.1 27 10.7 N 17 24 9 13 1017.0 1016.7 0.0
24/11:30am 25.9 22.0 7.0 30 10.0 N 17 26 9 14 1017.5 - 0.0
24/11:00am 24.6 19.8 7.3 33 9.1 N 22 28 12 15 1017.9 1017.6 0.0
24/10:30am 23.2 17.6 7.3 36 8.3 N 26 35 14 19 1017.8 - 0.0
24/10:00am 22.2 16.3 7.6 39 7.6 NNE 28 35 15 19 1017.6 1017.3 0.0
24/09:30am 20.9 15.1 7.9 43 6.8 NNE 28 35 15 19 1017.6 - 0.0
24/09:00am 17.9 11.8 6.4 47 5.7 NE 28 33 15 18 1017.3 1017.0 0.0
24/08:30am 16.1 11.3 5.7 50 5.1 NE 20 28 11 15 1017.1 - 0.0
24/08:00am 14.0 9.8 4.0 51 4.6 ENE 15 20 8 11 1016.8 1016.5 0.0
24/07:30am 12.0 7.5 1.9 50 4.4 ENE 15 19 8 10 1016.4 - 0.0
24/07:00am 11.6 7.3 1.3 49 4.4 ENE 13 15 7 8 1016.2 1015.8 0.0
24/06:30am 12.5 8.3 1.8 48 4.6 ENE 13 17 7 9 1015.7 - 0.0
24/06:00am 12.6 8.4 1.6 47 4.8 ENE 13 15 7 8 1015.5 1015.2 0.0
24/05:30am 12.1 7.6 -0.1 43 5.1 NE 13 19 7 10 1015.0 - 0.0
24/05:00am 11.8 6.8 -1.0 41 5.2 NE 15 19 8 10 1014.7 1014.4 0.0
24/04:30am 11.6 6.6 -1.2 41 5.1 NE 15 19 8 10 1014.7 - 0.0
24/04:00am 10.6 6.2 -2.8 39 5.1 NE 11 15 6 8 1014.9 1014.6 0.0
24/03:30am 10.8 6.7 -2.9 38 5.2 NE 9 13 5 7 1014.9 - 0.0
24/03:00am 10.8 6.7 -3.3 37 5.3 ENE 9 11 5 6 1015.0 1014.7 0.0
24/02:30am 11.1 6.9 -3.8 35 5.6 ENE 9 9 5 5 1015.0 - 0.0
24/02:00am 11.0 6.3 -4.6 33 5.8 ENE 11 13 6 7 1015.1 1014.8 0.0
24/01:30am 11.3 6.6 -4.8 32 5.9 E 11 13 6 7 1015.2 - 0.0
24/01:00am 12.3 8.1 -4.3 31 6.3 ESE 9 9 5 5 1015.3 1015.0 0.0
24/12:30am 12.2 7.5 -4.8 30 6.3 E 11 13 6 7 1015.2 - 0.0
24/12:00am 13.5 9.3 -3.7 30 6.7 ESE 9 9 5 5 1015.5 1015.2 0.0
 
Date/Time
EST
Temp
°C
App
Temp
°C
Dew
Point
Rel
Hum
%
Delta-T
°C
Wind Press
QNH
hPa
Press
MSL
hPa
Rain
since 9 am
mm
Dir
 
Spd
km/h
Gust
km/h
Spd
kts
Gust
kts
23/11:30pm 13.8 9.6 -3.9 29 6.9 E 9 9 5 5 1015.6 - 0.0
23/11:00pm 14.8 10.6 -3.5 28 7.2 ESE 9 11 5 6 1015.6 1015.3 0.0
23/10:30pm 15.6 11.9 -2.8 28 7.4 E 7 9 4 5 1015.5 - 0.0
23/10:00pm 17.2 13.7 -1.4 28 7.9 ESE 7 7 4 4 1015.6 1015.3 0.0
23/09:30pm 15.7 12.1 -3.7 26 7.7 E 6 11 3 6 1015.6 - 0.0

Other Formats:

Comma delimited format used in spreadsheet applications
http://www.bom.gov.au/fwo/IDQ60801/IDQ60801.94342.axf

JavaScript Object Notation format (JSON) in row-major order
http://www.bom.gov.au/fwo/IDQ60801/IDQ60801.94342.json